Time;durP1;ratioP1;P1;durP2;ratioP2;P2;SDS_P1;SDS_P2;PMS_P1;PMS_P2;Temp;Humidity;BMP_temperature;BMP_pressure;BME280_temperature;BME280_humidity;BME280_pressure;Samples;Min_cycle;Max_cycle;Signal;HPM_P1;HPM_P2
2024/03/25 00:00:13;;;;;;;6.65;2.47;;;5.60;99.90;;;;;;5011468;28;20037;-72
2024/03/25 00:02:40;;;;;;;10.07;3.28;;;5.50;99.90;;;;;;4995439;28;20040;-72
2024/03/25 00:05:09;;;;;;;4.90;3.55;;;5.40;99.90;;;;;;4979139;28;20045;-72
2024/03/25 00:07:36;;;;;;;8.55;3.60;;;5.30;99.90;;;;;;5011686;28;20060;-72
2024/03/25 00:10:02;;;;;;;8.50;2.70;;;5.30;99.90;;;;;;4995640;28;20510;-72
2024/03/25 00:12:28;;;;;;;10.23;3.03;;;5.20;99.90;;;;;;4979274;28;20058;-72
2024/03/25 00:14:55;;;;;;;4.40;2.42;;;5.10;99.90;;;;;;5004026;28;20060;-72
2024/03/25 00:17:20;;;;;;;8.10;3.80;;;5.10;99.90;;;;;;4995219;28;20068;-72
2024/03/25 00:19:50;;;;;;;7.63;2.28;;;5.00;99.90;;;;;;5011584;28;20487;-72
2024/03/25 00:22:19;;;;;;;7.43;3.67;;;5.00;99.90;;;;;;4995713;28;20041;-73
2024/03/25 00:24:46;;;;;;;9.10;2.53;;;4.90;99.90;;;;;;5011663;28;20030;-72
2024/03/25 00:27:13;;;;;;;10.07;2.83;;;4.90;99.90;;;;;;4995385;28;20045;-72
2024/03/25 00:29:39;;;;;;;9.63;3.13;;;4.80;99.90;;;;;;5011542;28;20042;-72
2024/03/25 00:32:05;;;;;;;8.35;2.13;;;4.70;99.90;;;;;;4980113;28;20410;-72
2024/03/25 00:34:32;;;;;;;7.72;4.60;;;4.70;99.90;;;;;;4995017;28;20037;-72
2024/03/25 00:36:59;;;;;;;8.48;3.50;;;4.60;99.90;;;;;;5011532;28;20045;-72
2024/03/25 00:39:26;;;;;;;8.52;2.42;;;4.60;99.90;;;;;;4995190;28;20446;-72
2024/03/25 00:41:52;;;;;;;6.68;3.90;;;4.60;99.90;;;;;;4995011;28;20077;-72
2024/03/25 00:44:19;;;;;;;4.30;2.50;;;4.50;99.90;;;;;;5011537;28;20041;-72
2024/03/25 00:46:45;;;;;;;11.88;3.30;;;4.50;99.90;;;;;;5010977;28;20054;-72
2024/03/25 00:49:11;;;;;;;7.00;3.35;;;4.60;99.90;;;;;;4978966;28;20050;-71
2024/03/25 00:51:37;;;;;;;11.80;2.72;;;4.70;99.90;;;;;;4978547;28;20523;-72
2024/03/25 00:54:03;;;;;;;5.25;2.08;;;4.80;99.90;;;;;;4995003;28;20411;-72
2024/03/25 00:56:30;;;;;;;7.18;2.75;;;4.90;99.90;;;;;;4978670;28;20092;-72
2024/03/25 00:59:02;;;;;;;11.13;3.08;;;5.00;99.90;;;;;;5011265;28;20053;-72
2024/03/25 01:01:35;;;;;;;5.07;2.95;;;5.10;99.90;;;;;;4994696;28;20038;-72
2024/03/25 01:04:02;;;;;;;7.20;3.38;;;5.20;99.90;;;;;;4995183;28;20080;-72
2024/03/25 01:06:28;;;;;;;9.98;2.55;;;5.30;99.90;;;;;;4995188;28;20038;-72
2024/03/25 01:08:54;;;;;;;9.77;1.73;;;5.30;99.90;;;;;;5011213;28;20446;-72
2024/03/25 01:11:21;;;;;;;4.40;2.67;;;5.30;99.90;;;;;;5011403;28;20037;-72
2024/03/25 01:13:48;;;;;;;4.82;3.30;;;5.30;99.90;;;;;;4978601;28;20045;-72
2024/03/25 01:16:14;;;;;;;7.10;3.53;;;5.30;99.90;;;;;;4994994;28;20057;-72
2024/03/25 01:18:40;;;;;;;6.03;1.73;;;5.10;99.90;;;;;;4994609;28;20153;-72
2024/03/25 01:21:06;;;;;;;20.20;4.15;;;5.00;99.90;;;;;;4994847;28;20146;-72
2024/03/25 01:23:32;;;;;;;8.25;2.80;;;5.00;99.90;;;;;;4995039;28;20034;-72
2024/03/25 01:25:58;;;;;;;5.10;4.43;;;4.90;99.90;;;;;;4994912;28;20042;-72
2024/03/25 01:28:24;;;;;;;6.25;3.75;;;5.00;99.90;;;;;;4994722;28;20043;-72
2024/03/25 01:30:50;;;;;;;6.15;2.72;;;5.00;99.90;;;;;;4981758;28;20065;-72
2024/03/25 01:33:16;;;;;;;5.18;2.50;;;5.00;99.90;;;;;;4998638;28;20499;-72
2024/03/25 01:35:42;;;;;;;10.48;3.95;;;5.00;99.90;;;;;;4982279;28;20054;-72
2024/03/25 01:38:08;;;;;;;7.20;3.67;;;5.00;99.90;;;;;;5015297;28;20034;-73
2024/03/25 01:40:35;;;;;;;9.15;3.15;;;5.00;99.90;;;;;;4998729;28;20491;-72
2024/03/25 01:43:02;;;;;;;6.65;2.25;;;5.00;99.90;;;;;;4998641;28;20050;-72
2024/03/25 01:45:34;;;;;;;5.80;2.33;;;5.00;99.90;;;;;;5015025;28;20053;-72
2024/03/25 01:48:04;;;;;;;6.05;1.98;;;5.00;99.90;;;;;;5015038;28;20423;-72
2024/03/25 01:50:34;;;;;;;5.75;2.90;;;5.00;99.90;;;;;;5014954;28;20088;-72
2024/03/25 01:53:01;;;;;;;7.40;2.40;;;5.10;99.90;;;;;;4998293;28;20049;-72
2024/03/25 01:55:29;;;;;;;5.60;2.47;;;5.00;99.90;;;;;;4998637;28;20137;-72
2024/03/25 01:57:56;;;;;;;8.68;3.22;;;5.10;99.90;;;;;;5014416;28;20578;-72
2024/03/25 02:00:25;;;;;;;14.02;3.50;;;5.20;99.90;;;;;;5014954;28;20531;-72
2024/03/25 02:02:52;;;;;;;4.43;3.60;;;5.30;99.90;;;;;;4997973;28;20073;-73
2024/03/25 02:05:18;;;;;;;6.40;3.08;;;5.30;99.90;;;;;;5014798;28;20034;-72
2024/03/25 02:07:45;;;;;;;8.63;3.13;;;5.30;99.90;;;;;;4981793;28;20050;-72
2024/03/25 02:10:14;;;;;;;5.30;2.45;;;5.40;99.90;;;;;;4998143;28;20050;-72
2024/03/25 02:12:44;;;;;;;3.78;2.03;;;5.40;99.90;;;;;;5014271;28;20053;-72
2024/03/25 02:15:11;;;;;;;5.70;1.63;;;5.40;99.90;;;;;;4998271;28;20068;-72
2024/03/25 02:17:37;;;;;;;9.48;3.58;;;5.50;99.90;;;;;;4998163;28;20510;-72
2024/03/25 02:20:05;;;;;;;8.23;2.60;;;5.50;99.90;;;;;;4981575;28;20046;-72
2024/03/25 02:22:33;;;;;;;9.73;3.42;;;5.50;99.90;;;;;;4997995;28;20046;-73
2024/03/25 02:25:00;;;;;;;5.00;2.75;;;5.50;99.90;;;;;;4997709;28;20491;-73
2024/03/25 02:27:31;;;;;;;6.43;1.88;;;5.50;99.90;;;;;;5014485;28;20045;-72
2024/03/25 02:30:10;;;;;;;8.40;3.00;;;5.60;99.90;;;;;;4997768;28;20403;-72
2024/03/25 02:32:37;;;;;;;6.93;3.33;;;5.60;99.90;;;;;;4981481;28;20050;-72
2024/03/25 02:35:10;;;;;;;10.63;2.55;;;5.50;99.90;;;;;;4997586;28;20042;-72
2024/03/25 02:37:37;;;;;;;5.65;2.47;;;5.50;99.90;;;;;;4997621;28;20080;-72
2024/03/25 02:40:07;;;;;;;5.78;3.33;;;5.50;99.90;;;;;;4997106;28;20049;-72
2024/03/25 02:42:33;;;;;;;2.30;1.48;;;5.50;99.90;;;;;;5013860;28;20096;-72
2024/03/25 02:44:59;;;;;;;2.95;2.58;;;5.40;99.90;;;;;;4981247;28;20041;-72
2024/03/25 02:47:26;;;;;;;6.20;2.38;;;5.40;99.90;;;;;;4981220;28;20399;-72
2024/03/25 02:49:52;;;;;;;5.53;2.38;;;5.30;99.90;;;;;;4997162;28;20050;-72
2024/03/25 02:52:21;;;;;;;5.95;3.90;;;5.30;99.90;;;;;;4997683;28;20042;-72
2024/03/25 02:54:47;;;;;;;5.82;3.13;;;5.30;99.90;;;;;;4997316;28;20033;-72
2024/03/25 02:57:13;;;;;;;5.55;2.50;;;5.30;99.90;;;;;;4997269;28;20491;-72
2024/03/25 02:59:39;;;;;;;7.00;4.38;;;5.30;99.90;;;;;;4997122;28;20053;-72
2024/03/25 03:02:05;;;;;;;5.35;3.03;;;5.30;99.90;;;;;;5013402;28;20038;-72
2024/03/25 03:04:31;;;;;;;3.47;1.92;;;5.30;99.90;;;;;;5013446;28;20096;-72
2024/03/25 03:06:57;;;;;;;4.20;1.95;;;5.30;99.90;;;;;;5013345;28;20045;-72
2024/03/25 03:09:23;;;;;;;3.72;1.40;;;5.30;99.90;;;;;;5013456;28;20438;-72
2024/03/25 03:11:49;;;;;;;5.05;3.03;;;5.40;99.90;;;;;;5013087;28;20050;-72
2024/03/25 03:14:15;;;;;;;13.30;3.63;;;5.40;99.90;;;;;;5013381;28;20053;-72
2024/03/25 03:16:41;;;;;;;7.15;2.47;;;5.40;99.90;;;;;;4997036;28;20065;-72
2024/03/25 03:19:08;;;;;;;5.13;3.47;;;5.50;99.90;;;;;;4996449;28;20042;-72
2024/03/25 03:21:34;;;;;;;4.50;2.75;;;5.40;99.90;;;;;;5013177;28;20041;-72
2024/03/25 03:24:00;;;;;;;9.93;2.65;;;5.40;99.90;;;;;;4996635;28;20046;-72
2024/03/25 03:26:26;;;;;;;5.10;2.70;;;5.40;99.90;;;;;;4996684;28;20089;-72
2024/03/25 03:28:59;;;;;;;2.25;2.15;;;5.40;99.90;;;;;;4996437;28;20503;-72
2024/03/25 03:31:26;;;;;;;2.60;2.25;;;5.30;99.90;;;;;;4996620;28;20104;-71
2024/03/25 03:33:52;;;;;;;10.00;3.80;;;5.30;99.90;;;;;;4996823;28;20097;-72
2024/03/25 03:36:22;;;;;;;12.23;4.32;;;5.20;99.90;;;;;;4980433;28;20415;-72
2024/03/25 03:38:50;;;;;;;9.45;3.08;;;5.10;99.90;;;;;;5012814;28;20404;-71
2024/03/25 03:41:17;;;;;;;4.20;3.42;;;5.10;99.90;;;;;;5012808;28;20042;-72
2024/03/25 03:43:43;;;;;;;9.15;3.70;;;5.00;99.90;;;;;;5012899;28;20034;-71
2024/03/25 03:46:09;;;;;;;10.93;2.20;;;5.00;99.90;;;;;;4996290;28;20046;-72
2024/03/25 03:48:35;;;;;;;3.92;2.42;;;5.10;99.90;;;;;;4980372;28;20057;-72
2024/03/25 03:51:01;;;;;;;5.50;4.15;;;5.10;99.90;;;;;;4996383;28;20060;-72
2024/03/25 03:53:27;;;;;;;9.23;3.22;;;5.20;99.90;;;;;;4995757;28;20049;-71
2024/03/25 03:55:58;;;;;;;8.45;3.17;;;5.20;99.90;;;;;;5012185;28;20057;-71
2024/03/25 03:58:24;;;;;;;5.60;3.60;;;5.30;99.90;;;;;;4996183;28;20050;-72
2024/03/25 04:00:51;;;;;;;9.88;3.25;;;5.30;99.90;;;;;;4994654;28;20030;-72
2024/03/25 04:03:17;;;;;;;6.45;3.22;;;5.40;99.90;;;;;;4995015;28;20073;-72
2024/03/25 04:05:43;;;;;;;8.65;3.13;;;5.40;99.90;;;;;;5008388;28;20084;-72
2024/03/25 04:08:09;;;;;;;10.20;3.47;;;5.50;99.90;;;;;;4995427;28;20054;-72
2024/03/25 04:10:36;;;;;;;9.02;3.30;;;5.50;99.90;;;;;;4995701;28;20068;-72
2024/03/25 04:13:06;;;;;;;5.80;3.55;;;5.50;99.90;;;;;;4995830;28;20049;-72
2024/03/25 04:15:36;;;;;;;6.18;2.45;;;5.50;99.90;;;;;;4995777;28;20041;-71
2024/03/25 04:18:03;;;;;;;9.65;3.83;;;5.50;99.90;;;;;;5011863;28;20037;-72
2024/03/25 04:20:35;;;;;;;3.70;2.30;;;5.50;99.90;;;;;;4979662;28;20049;-71
2024/03/25 04:23:01;;;;;;;4.82;2.35;;;5.50;99.90;;;;;;5011994;28;20046;-72
2024/03/25 04:25:27;;;;;;;8.32;2.47;;;5.40;99.90;;;;;;4995818;28;20068;-71
2024/03/25 04:27:54;;;;;;;9.38;2.47;;;5.40;99.90;;;;;;5011783;28;20072;-72
2024/03/25 04:30:20;;;;;;;9.85;2.38;;;5.40;99.90;;;;;;4995393;28;20050;-72
2024/03/25 04:32:46;;;;;;;5.90;3.33;;;5.40;99.90;;;;;;5011674;28;20041;-72
2024/03/25 04:35:12;;;;;;;8.80;2.90;;;5.50;99.90;;;;;;5011665;28;20168;-71
2024/03/25 04:37:38;;;;;;;9.70;3.00;;;5.50;99.90;;;;;;5011843;28;20065;-71
2024/03/25 04:40:04;;;;;;;7.85;1.75;;;5.50;99.90;;;;;;5011653;28;20034;-72
2024/03/25 04:42:30;;;;;;;4.70;2.40;;;5.50;99.90;;;;;;4995281;28;20068;-72
2024/03/25 04:44:57;;;;;;;4.25;2.30;;;5.50;99.90;;;;;;4979153;28;20491;-72
2024/03/25 04:47:23;;;;;;;8.07;1.92;;;5.50;99.90;;;;;;4995441;28;20407;-71
2024/03/25 04:49:49;;;;;;;5.07;2.20;;;5.50;99.90;;;;;;4995315;28;20046;-71
2024/03/25 04:52:23;;;;;;;6.03;4.47;;;5.50;99.90;;;;;;5011456;28;20076;-72
2024/03/25 04:54:49;;;;;;;5.93;3.58;;;5.40;99.90;;;;;;4949124;28;20037;-72
2024/03/25 04:57:15;;;;;;;4.05;2.35;;;5.40;99.90;;;;;;5011327;28;20042;-71
2024/03/25 04:59:41;;;;;;;7.35;2.60;;;5.40;99.90;;;;;;4995044;28;20045;-72
2024/03/25 05:02:08;;;;;;;3.17;1.60;;;5.40;99.90;;;;;;4995057;28;20042;-71
2024/03/25 05:04:34;;;;;;;6.60;1.42;;;5.40;99.90;;;;;;4978183;28;20049;-72
2024/03/25 05:07:00;;;;;;;2.55;1.90;;;5.40;99.90;;;;;;5011286;28;20057;-71
2024/03/25 05:09:25;;;;;;;9.85;2.55;;;5.40;99.90;;;;;;5011325;28;20124;-71
2024/03/25 05:11:51;;;;;;;5.32;2.65;;;5.30;99.90;;;;;;5011299;28;20519;-71
2024/03/25 05:14:17;;;;;;;12.02;5.78;;;5.40;99.90;;;;;;5011108;28;20050;-72
2024/03/25 05:16:44;;;;;;;4.57;2.65;;;5.30;99.90;;;;;;5011460;28;20096;-71
2024/03/25 05:19:09;;;;;;;9.35;1.83;;;5.30;99.90;;;;;;5011024;28;20491;-72
2024/03/25 05:21:35;;;;;;;2.90;1.83;;;5.20;99.90;;;;;;4978803;28;20048;-71
2024/03/25 05:24:01;;;;;;;4.68;3.05;;;5.10;99.90;;;;;;5011212;28;20096;-72
2024/03/25 05:26:27;;;;;;;8.85;2.92;;;5.00;99.90;;;;;;5010887;28;20038;-71
2024/03/25 05:28:54;;;;;;;3.55;1.40;;;4.90;99.90;;;;;;4994963;28;20506;-71
2024/03/25 05:31:21;;;;;;;10.70;2.55;;;4.70;99.90;;;;;;5011021;28;20053;-71
2024/03/25 05:33:47;;;;;;;8.02;2.65;;;4.60;99.90;;;;;;5011313;28;20058;-72
2024/03/25 05:36:13;;;;;;;7.65;2.58;;;4.60;99.90;;;;;;4978370;28;20518;-72
2024/03/25 05:38:39;;;;;;;5.32;3.60;;;4.50;99.90;;;;;;4995113;28;20076;-71
2024/03/25 05:41:05;;;;;;;3.35;1.67;;;4.40;99.90;;;;;;4994729;28;20514;-72
2024/03/25 05:43:31;;;;;;;6.28;2.88;;;4.30;99.90;;;;;;5011140;28;20128;-71
2024/03/25 05:45:58;;;;;;;3.30;1.88;;;4.30;99.90;;;;;;5010937;28;20038;-72
2024/03/25 05:48:27;;;;;;;14.25;3.03;;;4.40;99.90;;;;;;4994466;28;20046;-71
2024/03/25 05:51:09;;;;;;;9.73;2.47;;;4.40;99.90;;;;;;4978932;28;20041;-71
2024/03/25 05:53:35;;;;;;;6.57;2.63;;;4.50;99.90;;;;;;5011163;28;20042;-71
2024/03/25 05:56:01;;;;;;;2.42;1.77;;;4.60;99.90;;;;;;5010961;28;20041;-71
2024/03/25 05:58:28;;;;;;;2.25;1.58;;;4.70;99.90;;;;;;4994277;28;20045;-71
2024/03/25 06:00:54;;;;;;;4.70;2.30;;;4.80;99.90;;;;;;4992819;28;20034;-72
2024/03/25 06:03:20;;;;;;;8.93;2.17;;;4.90;99.90;;;;;;4994052;28;20425;-71
2024/03/25 06:05:47;;;;;;;5.38;2.78;;;4.90;99.90;;;;;;5010273;28;20034;-71
2024/03/25 06:08:24;;;;;;;8.07;2.00;;;5.00;99.90;;;;;;4994386;28;20150;-72
2024/03/25 06:10:51;;;;;;;4.88;1.65;;;5.00;99.90;;;;;;4994545;28;20049;-71
2024/03/25 06:13:17;;;;;;;4.90;2.22;;;5.00;99.90;;;;;;5010816;28;20037;-71
2024/03/25 06:15:44;;;;;;;1.90;1.20;;;5.10;99.90;;;;;;4979656;28;20049;-71
2024/03/25 06:18:10;;;;;;;4.50;1.98;;;5.20;99.90;;;;;;4981496;28;20491;-71
2024/03/25 06:20:36;;;;;;;5.72;2.13;;;5.30;99.90;;;;;;4981776;28;20069;-72
2024/03/25 06:23:02;;;;;;;8.57;3.17;;;5.40;99.90;;;;;;5014471;28;20034;-72
2024/03/25 06:25:28;;;;;;;3.13;1.55;;;5.40;99.90;;;;;;5013891;28;20037;-72
2024/03/25 06:27:56;;;;;;;4.70;2.13;;;5.50;99.90;;;;;;5014020;28;20476;-72
2024/03/25 06:35:52;;;;;;;11.02;3.95;;;5.60;99.90;;;;;;5013961;28;20038;-72
2024/03/25 06:38:18;;;;;;;4.28;2.53;;;5.60;99.90;;;;;;5013702;28;20046;-72
2024/03/25 06:40:45;;;;;;;8.60;3.40;;;5.80;99.90;;;;;;5014135;28;20045;-73
2024/03/25 06:43:12;;;;;;;14.32;3.38;;;6.20;99.90;;;;;;5013823;28;20041;-72
2024/03/25 06:45:38;;;;;;;6.93;2.40;;;6.60;99.90;;;;;;5013642;28;20034;-73
2024/03/25 06:48:05;;;;;;;2.85;1.50;;;7.00;99.90;;;;;;5013932;28;20087;-72
2024/03/25 06:50:32;;;;;;;12.73;3.25;;;7.60;99.90;;;;;;4981707;28;20046;-72
2024/03/25 06:52:57;;;;;;;6.47;2.13;;;7.90;99.90;;;;;;4997267;28;20104;-72
2024/03/25 06:55:27;;;;;;;7.07;3.15;;;8.30;99.90;;;;;;4997235;28;20042;-72
2024/03/25 06:57:53;;;;;;;3.72;1.42;;;8.80;99.90;;;;;;5013531;28;20049;-72
2024/03/25 07:00:22;;;;;;;8.00;2.28;;;9.00;99.90;;;;;;5013348;28;20050;-72
2024/03/25 07:02:48;;;;;;;5.05;1.48;;;9.50;99.90;;;;;;4997449;28;20034;-73
2024/03/25 07:05:14;;;;;;;5.45;2.55;;;9.90;99.90;;;;;;5013419;28;20042;-72
2024/03/25 07:07:41;;;;;;;4.22;1.83;;;10.30;99.90;;;;;;4997013;28;20041;-72
2024/03/25 07:10:07;;;;;;;10.13;2.65;;;11.00;99.90;;;;;;5013404;28;20042;-72
2024/03/25 07:12:34;;;;;;;5.00;1.55;;;11.70;99.90;;;;;;4996748;28;20052;-72
2024/03/25 07:15:00;;;;;;;8.63;2.10;;;11.90;99.90;;;;;;4996822;28;20054;-73
2024/03/25 07:17:26;;;;;;;5.90;1.63;;;11.70;99.90;;;;;;4980478;28;20050;-72
2024/03/25 07:19:52;;;;;;;8.18;2.13;;;11.40;99.90;;;;;;5013059;28;20042;-72
2024/03/25 07:22:18;;;;;;;7.97;2.83;;;11.00;99.90;;;;;;5012863;28;20038;-73
2024/03/25 07:24:45;;;;;;;11.18;2.72;;;10.60;99.90;;;;;;4980420;28;20048;-72
2024/03/25 07:27:11;;;;;;;8.52;1.95;;;10.20;99.90;;;;;;5012071;28;20045;-72
2024/03/25 07:29:37;;;;;;;5.82;2.13;;;9.90;99.90;;;;;;5012775;28;20443;-72
2024/03/25 07:32:04;;;;;;;7.07;2.88;;;9.70;99.90;;;;;;5012804;28;20050;-72
2024/03/25 07:34:30;;;;;;;6.22;2.25;;;9.60;99.90;;;;;;4996426;28;20054;-72
2024/03/25 07:36:56;;;;;;;10.95;2.30;;;9.40;99.90;;;;;;4996566;28;20495;-72
2024/03/25 07:39:24;;;;;;;25.17;3.63;;;9.10;99.90;;;;;;4996259;28;20053;-72
2024/03/25 07:41:50;;;;;;;4.25;2.78;;;8.90;99.90;;;;;;4996574;28;20117;-72
2024/03/25 07:44:16;;;;;;;7.15;2.47;;;9.00;99.90;;;;;;4996253;28;20373;-73
2024/03/25 07:46:42;;;;;;;6.43;2.35;;;9.70;99.90;;;;;;4979950;28;20103;-72
2024/03/25 07:49:08;;;;;;;5.18;1.92;;;10.30;99.90;;;;;;5012577;28;20046;-72
2024/03/25 07:51:35;;;;;;;4.25;1.92;;;11.00;99.90;;;;;;5012507;28;20046;-72
2024/03/25 07:54:03;;;;;;;7.63;2.05;;;11.70;99.90;;;;;;5012526;28;20053;-72
2024/03/25 07:56:32;;;;;;;6.00;1.63;;;12.20;99.90;;;;;;5012208;28;20399;-72
2024/03/25 07:58:59;;;;;;;7.32;1.92;;;12.80;99.90;;;;;;5012331;28;20088;-73
2024/03/25 08:01:25;;;;;;;8.70;3.00;;;13.50;99.90;;;;;;4979756;28;20053;-73
2024/03/25 08:03:51;;;;;;;3.80;1.33;;;14.00;98.90;;;;;;5012403;28;20057;-72
2024/03/25 08:06:17;;;;;;;8.68;2.00;;;14.30;98.20;;;;;;4996048;28;20042;-73
2024/03/25 08:08:43;;;;;;;5.18;2.35;;;14.50;97.80;;;;;;4979972;28;20045;-73
2024/03/25 08:11:10;;;;;;;1.98;1.40;;;14.60;97.10;;;;;;5012587;28;20046;-73
2024/03/25 08:13:36;;;;;;;5.35;2.03;;;14.70;95.80;;;;;;4979612;28;20038;-72
2024/03/25 08:16:02;;;;;;;6.80;1.63;;;14.60;93.90;;;;;;5012323;28;20120;-72
2024/03/25 08:18:28;;;;;;;5.53;1.23;;;14.50;94.60;;;;;;4995743;28;20399;-73
2024/03/25 08:20:54;;;;;;;8.52;1.60;;;14.50;94.50;;;;;;4995709;28;20096;-72
2024/03/25 08:23:20;;;;;;;5.43;1.17;;;14.80;95.30;;;;;;4979890;28;20046;-72
2024/03/25 08:25:46;;;;;;;1.52;0.80;;;15.00;94.80;;;;;;5011779;28;20208;-73
2024/03/25 08:28:12;;;;;;;4.07;1.35;;;15.20;93.90;;;;;;5012027;28;20049;-73
2024/03/25 08:30:38;;;;;;;6.55;1.35;;;15.20;93.60;;;;;;5012000;28;20399;-72
2024/03/25 08:33:04;;;;;;;7.13;2.03;;;15.60;95.00;;;;;;5011855;28;20049;-73
2024/03/25 08:35:30;;;;;;;3.63;1.67;;;16.30;94.20;;;;;;4995342;28;20057;-72
2024/03/25 08:37:56;;;;;;;10.80;2.03;;;16.70;91.70;;;;;;5011580;28;20041;-72
2024/03/25 08:40:22;;;;;;;4.85;1.20;;;16.30;91.20;;;;;;5011855;28;20040;-72
2024/03/25 08:42:48;;;;;;;5.80;1.33;;;15.80;91.20;;;;;;4995367;28;20288;-72
2024/03/25 08:45:14;;;;;;;6.38;1.35;;;15.00;91.80;;;;;;5011830;28;20030;-72
2024/03/25 08:47:42;;;;;;;2.00;0.70;;;14.10;91.60;;;;;;4995182;28;20045;-72
2024/03/25 08:50:08;;;;;;;5.22;1.30;;;13.30;92.50;;;;;;5011847;28;20052;-71
2024/03/25 08:52:34;;;;;;;6.60;2.08;;;12.60;93.40;;;;;;4995043;28;20053;-71
2024/03/25 08:55:00;;;;;;;7.43;1.90;;;12.00;93.90;;;;;;4979153;28;20053;-71
2024/03/25 08:57:26;;;;;;;3.45;1.27;;;11.60;94.60;;;;;;5011924;28;20061;-72
2024/03/25 08:59:52;;;;;;;6.28;1.63;;;11.20;95.20;;;;;;4995014;28;20511;-71
2024/03/25 09:02:18;;;;;;;8.98;1.90;;;10.90;95.60;;;;;;5011739;28;20034;-72
2024/03/25 09:04:44;;;;;;;2.95;2.22;;;10.70;95.80;;;;;;5011574;28;20099;-71
2024/03/25 09:07:10;;;;;;;4.38;1.52;;;10.60;96.00;;;;;;5011758;28;20084;-71
2024/03/25 09:12:21;;;;;;;6.53;1.92;;;10.30;96.50;;;;;;4994988;28;20057;-71
2024/03/25 09:14:49;;;;;;;5.03;1.42;;;10.30;97.20;;;;;;4995187;28;20042;-71
2024/03/25 09:17:16;;;;;;;8.10;1.80;;;10.40;97.50;;;;;;4995157;28;20052;-71
2024/03/25 09:19:43;;;;;;;2.35;1.73;;;10.30;97.20;;;;;;5011342;28;20038;-71
2024/03/25 09:22:09;;;;;;;5.00;1.58;;;10.30;97.10;;;;;;4995061;28;20045;-71
2024/03/25 09:24:35;;;;;;;6.07;2.28;;;10.30;97.40;;;;;;5011440;28;20042;-71
2024/03/25 09:27:01;;;;;;;4.15;2.17;;;10.40;97.40;;;;;;5011395;28;20038;-72
2024/03/25 09:29:27;;;;;;;2.67;1.77;;;10.60;98.00;;;;;;5011403;28;20049;-71
2024/03/25 09:31:53;;;;;;;7.50;2.40;;;10.90;98.30;;;;;;4994642;28;20054;-71
2024/03/25 09:34:19;;;;;;;3.88;1.10;;;11.30;96.60;;;;;;4978868;28;20053;-71
2024/03/25 09:36:45;;;;;;;3.83;1.67;;;11.60;95.80;;;;;;4994730;28;20042;-71
2024/03/25 09:39:13;;;;;;;2.85;0.80;;;11.70;95.80;;;;;;4994850;28;20061;-71
2024/03/25 09:41:43;;;;;;;8.55;2.10;;;11.80;95.30;;;;;;4994548;28;20049;-72
2024/03/25 09:44:10;;;;;;;7.53;2.03;;;12.20;96.20;;;;;;4978653;28;20054;-72
2024/03/25 09:46:36;;;;;;;11.73;1.67;;;12.80;96.20;;;;;;4994813;28;20034;-71
2024/03/25 09:49:05;;;;;;;3.97;1.25;;;13.30;95.40;;;;;;5011340;28;20034;-72
2024/03/25 09:51:31;;;;;;;1.73;0.73;;;13.30;93.10;;;;;;5013864;28;20397;-71
2024/03/25 09:53:58;;;;;;;3.50;1.88;;;13.10;92.60;;;;;;5014781;28;20518;-71
2024/03/25 09:56:24;;;;;;;6.47;1.20;;;12.80;92.90;;;;;;5014966;28;20514;-72
2024/03/25 09:58:50;;;;;;;3.72;1.50;;;13.40;93.70;;;;;;4998369;28;20058;-72
2024/03/25 10:01:17;;;;;;;2.47;0.70;;;14.50;90.30;;;;;;4998399;28;20042;-72
2024/03/25 10:03:43;;;;;;;1.95;0.90;;;15.40;90.10;;;;;;4998129;28;20053;-72
2024/03/25 10:06:09;;;;;;;8.27;1.70;;;16.50;90.90;;;;;;5014805;28;20052;-72
2024/03/25 10:08:35;;;;;;;2.90;0.75;;;17.50;90.60;;;;;;4998459;28;20042;-73
2024/03/25 10:11:02;;;;;;;5.70;1.85;;;18.40;83.50;;;;;;5014486;28;20372;-73
2024/03/25 10:13:28;;;;;;;3.17;0.85;;;18.90;81.40;;;;;;5014911;28;20034;-73
2024/03/25 10:15:55;;;;;;;6.82;1.42;;;19.50;76.10;;;;;;4982203;28;20119;-72
2024/03/25 10:18:22;;;;;;;3.85;1.05;;;19.70;77.30;;;;;;5014490;28;20045;-72
2024/03/25 10:20:52;;;;;;;4.47;1.30;;;20.00;75.10;;;;;;5014166;28;20041;-72
2024/03/25 10:23:23;;;;;;;4.63;1.02;;;19.60;72.50;;;;;;4998181;28;20042;-72
2024/03/25 10:25:53;;;;;;;1.85;1.00;;;19.30;72.90;;;;;;4981576;28;20096;-72
2024/03/25 10:28:19;;;;;;;3.08;0.80;;;19.60;73.60;;;;;;4997919;28;20060;-72
2024/03/25 10:30:45;;;;;;;5.00;1.58;;;20.10;72.20;;;;;;4997596;28;20054;-73
2024/03/25 10:33:11;;;;;;;4.00;0.70;;;20.30;68.10;;;;;;5014259;28;20058;-73
2024/03/25 10:35:39;;;;;;;6.82;0.90;;;20.30;68.90;;;;;;4997945;28;20048;-72
2024/03/25 10:38:10;;;;;;;7.13;1.30;;;20.40;70.60;;;;;;4997700;28;20119;-72
2024/03/25 10:40:40;;;;;;;7.00;1.33;;;20.60;71.60;;;;;;5014071;28;20038;-73
2024/03/25 10:43:11;;;;;;;4.25;1.05;;;20.60;71.00;;;;;;5014193;28;20053;-72
2024/03/25 10:45:55;;;;;;;6.07;1.55;;;20.90;71.80;;;;;;5014133;28;20053;-72
2024/03/25 10:48:39;;;;;;;2.50;0.70;;;21.50;69.70;;;;;;4981650;28;20037;-72
2024/03/25 10:51:08;;;;;;;2.42;1.02;;;22.10;66.90;;;;;;5014086;28;20045;-72
2024/03/25 10:53:36;;;;;;;8.88;2.30;;;22.30;68.50;;;;;;5014030;28;20034;-72
2024/03/25 10:56:05;;;;;;;4.93;0.90;;;22.50;68.00;;;;;;4981071;28;20050;-72
2024/03/25 10:58:32;;;;;;;5.07;1.08;;;22.80;64.50;;;;;;4997332;28;20400;-73
2024/03/25 11:00:59;;;;;;;4.93;1.20;;;22.50;64.30;;;;;;4997376;28;20046;-72
2024/03/25 11:03:26;;;;;;;2.83;1.00;;;22.50;66.10;;;;;;4997416;28;20042;-73
2024/03/25 11:05:52;;;;;;;1.55;0.63;;;22.30;61.40;;;;;;4997246;28;20510;-72
2024/03/25 11:08:18;;;;;;;4.15;1.45;;;22.10;64.60;;;;;;4997101;28;20089;-73
2024/03/25 11:10:46;;;;;;;2.53;0.98;;;21.70;63.60;;;;;;5013552;28;20042;-72
2024/03/25 11:13:19;;;;;;;3.33;0.85;;;21.50;64.80;;;;;;4997270;28;20046;-72
2024/03/25 11:15:49;;;;;;;4.07;1.10;;;21.60;64.50;;;;;;5013514;28;20398;-73
2024/03/25 11:18:25;;;;;;;5.80;1.30;;;21.90;64.70;;;;;;4996948;28;20050;-73
2024/03/25 11:21:06;;;;;;;2.90;1.00;;;22.00;63.60;;;;;;5013323;28;20087;-72
2024/03/25 11:23:41;;;;;;;6.13;1.00;;;22.00;62.40;;;;;;4996933;28;20049;-72
2024/03/25 11:26:27;;;;;;;6.65;1.23;;;21.30;61.20;;;;;;5013417;28;20049;-72
2024/03/25 11:28:53;;;;;;;2.08;0.70;;;19.90;63.80;;;;;;4996702;28;20050;-72
2024/03/25 11:31:26;;;;;;;1.10;0.80;;;19.60;64.40;;;;;;5013200;28;20049;-72
2024/03/25 11:33:52;;;;;;;4.20;1.13;;;19.10;64.70;;;;;;5013096;28;20380;-72
2024/03/25 11:36:20;;;;;;;2.03;0.82;;;18.40;64.80;;;;;;5013146;28;20046;-71
2024/03/25 11:38:56;;;;;;;2.72;0.98;;;18.00;65.80;;;;;;5012917;28;20045;-72
2024/03/25 11:41:22;;;;;;;1.27;0.73;;;17.60;67.50;;;;;;5013011;28;20498;-72
2024/03/25 11:43:49;;;;;;;2.90;1.15;;;17.30;69.80;;;;;;4996608;28;20065;-72
2024/03/25 11:46:18;;;;;;;3.25;1.02;;;17.10;69.50;;;;;;4980130;28;20045;-72
2024/03/25 11:48:44;;;;;;;4.82;1.40;;;17.00;70.60;;;;;;5012836;28;20042;-72
2024/03/25 11:51:17;;;;;;;4.10;1.10;;;16.70;72.20;;;;;;4980036;28;20050;-72
2024/03/25 11:53:43;;;;;;;2.63;1.35;;;16.50;72.60;;;;;;4990328;28;20053;-72
2024/03/25 11:56:11;;;;;;;5.65;1.98;;;16.30;73.80;;;;;;4993511;28;20046;-72
2024/03/25 11:58:38;;;;;;;2.95;0.77;;;15.90;73.70;;;;;;5008059;28;20045;-72
2024/03/25 12:01:04;;;;;;;4.53;1.38;;;15.40;75.20;;;;;;4995660;28;20026;-72
2024/03/25 12:03:34;;;;;;;3.85;1.38;;;15.40;74.60;;;;;;5012460;28;20425;-72
2024/03/25 12:06:01;;;;;;;2.42;0.70;;;15.50;74.70;;;;;;4995759;28;20045;-72
2024/03/25 12:08:29;;;;;;;4.30;1.20;;;15.40;74.20;;;;;;5012351;28;20427;-72
2024/03/25 12:13:42;;;;;;;4.13;1.48;;;15.10;74.30;;;;;;5012027;28;20049;-72
2024/03/25 12:16:09;;;;;;;3.35;1.40;;;14.90;75.50;;;;;;5008949;28;20116;-72
2024/03/25 12:18:36;;;;;;;6.40;1.55;;;14.40;76.00;;;;;;4987028;28;20037;-71
2024/03/25 12:21:05;;;;;;;4.38;1.77;;;13.90;77.40;;;;;;5011867;28;20129;-71
2024/03/25 12:23:34;;;;;;;5.78;1.20;;;13.50;78.50;;;;;;4995662;28;20042;-72
2024/03/25 12:26:02;;;;;;;3.70;1.00;;;13.10;79.60;;;;;;4995472;28;20049;-72
2024/03/25 12:28:30;;;;;;;4.03;1.83;;;12.70;80.90;;;;;;4995560;28;20042;-72
2024/03/25 12:30:57;;;;;;;6.45;1.55;;;12.50;82.00;;;;;;5011954;28;20045;-72
2024/03/25 12:33:26;;;;;;;3.03;1.13;;;12.20;82.00;;;;;;5011847;28;20061;-71
2024/03/25 12:35:52;;;;;;;3.92;1.80;;;11.90;85.00;;;;;;5011846;28;20099;-71
2024/03/25 12:38:26;;;;;;;2.78;1.13;;;12.00;83.70;;;;;;4995373;28;20054;-72
2024/03/25 12:40:53;;;;;;;5.53;1.77;;;12.40;82.90;;;;;;4995576;28;20042;-71
2024/03/25 12:43:20;;;;;;;6.38;1.35;;;12.70;82.30;;;;;;5011802;28;20395;-71
2024/03/25 12:45:46;;;;;;;4.65;0.93;;;13.10;81.60;;;;;;4995737;28;20508;-71
2024/03/25 12:48:12;;;;;;;3.78;1.00;;;13.40;81.00;;;;;;4979127;28;20058;-71
2024/03/25 12:50:39;;;;;;;3.92;1.42;;;13.90;80.50;;;;;;4995407;28;20046;-71
2024/03/25 12:53:05;;;;;;;3.58;1.48;;;14.20;79.80;;;;;;4995138;28;20439;-71
2024/03/25 12:55:31;;;;;;;2.60;0.88;;;14.60;79.00;;;;;;4979167;28;20049;-71
2024/03/25 12:57:58;;;;;;;5.15;1.63;;;14.80;78.00;;;;;;5011479;28;20422;-71
2024/03/25 13:00:24;;;;;;;5.25;1.55;;;15.10;77.40;;;;;;5027722;28;20046;-71
2024/03/25 13:02:50;;;;;;;3.90;1.35;;;15.50;77.40;;;;;;4978925;28;20123;-71